Time;durP1;ratioP1;P1;durP2;ratioP2;P2;SDS_P1;SDS_P2;PMS_P1;PMS_P2;Temp;Humidity;BMP_temperature;BMP_pressure;BME280_temperature;BME280_humidity;BME280_pressure;Samples;Min_cycle;Max_cycle;Signal;HPM_P1;HPM_P2
2023/11/22 00:00:53;;;;;;;2.17;1.88;;;;;;;0.30;99.46;101980.69;5092399;28;20211;-67
2023/11/22 00:03:23;;;;;;;4.97;2.65;;;;;;;0.14;100.00;101982.78;5090161;28;20219;-67
2023/11/22 00:05:52;;;;;;;5.03;2.80;;;;;;;0.27;100.00;101993.38;5092570;28;20187;-66
2023/11/22 00:08:21;;;;;;;4.93;3.63;;;;;;;0.26;99.10;101995.19;5092448;28;20184;-67
2023/11/22 00:10:50;;;;;;;4.25;2.33;;;;;;;0.24;98.26;102002.44;5085577;28;20206;-68
2023/11/22 00:13:19;;;;;;;3.92;3.50;;;;;;;0.18;98.65;101994.91;5085746;28;20200;-68
2023/11/22 00:15:49;;;;;;;6.18;1.88;;;;;;;0.18;98.62;102000.22;5096924;28;20200;-68
2023/11/22 00:18:18;;;;;;;3.90;2.28;;;;;;;0.27;97.85;102006.69;5090495;28;20187;-67
2023/11/22 00:20:48;;;;;;;3.28;2.45;;;;;;;0.24;97.98;102021.06;5093524;28;20210;-67
2023/11/22 00:23:18;;;;;;;8.23;3.17;;;;;;;0.30;97.80;102031.28;5094976;28;20296;-67
2023/11/22 00:25:46;;;;;;;3.13;2.08;;;;;;;0.31;98.00;102038.31;5090125;28;20180;-68
2023/11/22 00:28:15;;;;;;;3.75;1.75;;;;;;;0.30;98.46;102041.09;5092135;28;20192;-68
2023/11/22 00:30:44;;;;;;;4.22;2.72;;;;;;;0.35;98.36;102045.13;5086573;28;20270;-67
2023/11/22 00:33:15;;;;;;;8.20;3.25;;;;;;;0.33;97.24;102044.41;5073725;28;20623;-66
2023/11/22 00:35:44;;;;;;;2.35;2.15;;;;;;;0.17;97.96;102046.44;5092042;28;20211;-68
2023/11/22 00:38:13;;;;;;;3.67;3.20;;;;;;;0.15;98.39;102037.69;5070763;28;20191;-67
2023/11/22 00:40:42;;;;;;;4.28;3.88;;;;;;;0.25;97.38;102041.41;5074804;28;20203;-67
2023/11/22 00:43:10;;;;;;;4.95;4.10;;;;;;;0.18;97.69;102041.97;5093473;28;20195;-67
2023/11/22 00:45:40;;;;;;;6.78;2.72;;;;;;;0.13;98.13;102049.41;5077009;28;20616;-67
2023/11/22 00:48:09;;;;;;;6.07;2.63;;;;;;;0.04;98.32;102050.91;5090422;28;20573;-67
2023/11/22 00:50:39;;;;;;;3.35;2.95;;;;;;;0.04;98.57;102050.91;5092151;28;20688;-67
2023/11/22 00:53:09;;;;;;;6.97;1.85;;;;;;;-0.02;98.01;102067.28;5069079;28;20282;-68
2023/11/22 00:55:38;;;;;;;5.70;3.17;;;;;;;-0.12;98.47;102066.22;5094339;28;20570;-67
2023/11/22 00:58:07;;;;;;;5.90;2.28;;;;;;;-0.19;98.69;102070.25;5091922;28;20561;-67
2023/11/22 01:00:36;;;;;;;1.90;1.70;;;;;;;-0.23;99.74;102071.41;5092354;28;20271;-66
2023/11/22 01:03:05;;;;;;;4.05;3.15;;;;;;;-0.31;99.80;102076.41;5098643;28;20214;-67
2023/11/22 01:05:35;;;;;;;3.80;2.47;;;;;;;-0.46;100.00;102073.81;5094696;28;20255;-68
2023/11/22 01:08:06;;;;;;;4.68;2.15;;;;;;;-0.35;100.00;102081.09;5099507;28;20657;-66
2023/11/22 01:10:35;;;;;;;2.20;2.00;;;;;;;-0.48;100.00;102075.72;5094269;28;20286;-65
2023/11/22 01:13:04;;;;;;;2.97;2.00;;;;;;;-0.56;100.00;102078.03;5077158;28;20661;-66
2023/11/22 01:15:33;;;;;;;5.80;3.15;;;;;;;-0.61;100.00;102073.97;5095404;28;20664;-66
2023/11/22 01:18:01;;;;;;;2.58;1.80;;;;;;;-0.63;100.00;102076.72;5100195;28;20198;-65
2023/11/22 01:20:30;;;;;;;4.43;1.98;;;;;;;-0.59;100.00;102075.59;5072911;28;20192;-67
2023/11/22 01:22:59;;;;;;;1.63;1.52;;;;;;;-0.63;100.00;102076.72;5116218;27;20191;-67
2023/11/22 01:25:30;;;;;;;3.42;3.08;;;;;;;-0.80;100.00;102074.34;5095235;28;20217;-66
2023/11/22 01:27:58;;;;;;;2.95;2.00;;;;;;;-0.76;100.00;102075.84;5080709;28;20195;-67
2023/11/22 01:30:28;;;;;;;7.65;3.05;;;;;;;-0.76;100.00;102069.66;5093415;28;20419;-66
2023/11/22 01:32:57;;;;;;;3.10;1.60;;;;;;;-0.74;100.00;102073.94;5089106;28;20627;-66
2023/11/22 01:35:26;;;;;;;3.50;3.20;;;;;;;-0.77;100.00;102071.47;5094555;28;20215;-66
2023/11/22 01:37:56;;;;;;;6.05;3.28;;;;;;;-0.79;100.00;102073.41;5077733;28;20203;-67
2023/11/22 01:40:25;;;;;;;3.70;3.35;;;;;;;-0.88;100.00;102074.88;5094828;28;20222;-66
2023/11/22 01:42:56;;;;;;;6.80;2.67;;;;;;;-0.91;100.00;102071.53;5096771;28;20186;-67
2023/11/22 01:45:25;;;;;;;4.20;3.35;;;;;;;-0.92;100.00;102076.00;5099035;27;20221;-67
2023/11/22 01:47:55;;;;;;;2.03;1.40;;;;;;;-1.00;100.00;102066.81;5094819;28;20199;-67
2023/11/22 01:50:24;;;;;;;4.90;3.72;;;;;;;-1.03;100.00;102064.38;5076443;28;20191;-67
2023/11/22 01:52:53;;;;;;;2.75;2.08;;;;;;;-1.02;100.00;102074.06;5094931;28;20195;-68
2023/11/22 01:55:23;;;;;;;2.90;2.20;;;;;;;-1.04;100.00;102092.75;5090982;28;20464;-66
2023/11/22 01:57:52;;;;;;;5.32;3.58;;;;;;;-0.97;100.00;102093.22;5097263;28;20211;-66
2023/11/22 02:00:25;;;;;;;5.50;3.75;;;;;;;-0.99;100.00;102090.63;5076631;28;20187;-66
2023/11/22 02:02:54;;;;;;;4.75;3.70;;;;;;;-1.06;100.00;102088.47;5094680;28;20677;-68
2023/11/22 02:05:23;;;;;;;4.45;2.40;;;;;;;-1.01;100.00;102099.63;5101497;28;20207;-66
2023/11/22 02:07:53;;;;;;;3.50;3.10;;;;;;;-1.00;100.00;102098.69;5096410;28;20277;-66
2023/11/22 02:10:23;;;;;;;3.85;3.55;;;;;;;-1.04;100.00;102102.50;5095564;28;20278;-66
2023/11/22 02:12:52;;;;;;;9.15;4.32;;;;;;;-1.08;100.00;102098.34;5098575;28;20195;-67
2023/11/22 02:15:22;;;;;;;4.80;3.72;;;;;;;-1.08;100.00;102099.19;5076491;28;20268;-67
2023/11/22 02:17:51;;;;;;;22.77;3.13;;;;;;;-1.13;100.00;102101.31;5094068;28;20190;-67
2023/11/22 02:20:27;;;;;;;7.35;3.05;;;;;;;-1.06;100.00;102094.63;5116416;27;20191;-63
2023/11/22 02:22:56;;;;;;;5.40;2.58;;;;;;;-1.17;100.00;102101.59;5076818;28;20628;-67
2023/11/22 02:25:27;;;;;;;4.38;3.92;;;;;;;-1.26;100.00;102102.19;5076393;28;20206;-68
2023/11/22 02:27:56;;;;;;;3.45;3.08;;;;;;;-1.18;100.00;102107.84;5094100;28;20638;-66
2023/11/22 02:30:25;;;;;;;3.28;2.97;;;;;;;-1.32;100.00;102114.91;5095480;28;20199;-67
2023/11/22 02:32:55;;;;;;;4.15;3.53;;;;;;;-1.34;100.00;102122.09;5076611;28;20219;-65
2023/11/22 02:35:24;;;;;;;6.35;2.50;;;;;;;-1.32;100.00;102124.66;5095301;28;20204;-66
2023/11/22 02:37:52;;;;;;;8.23;3.22;;;;;;;-1.44;100.00;102123.59;5094190;28;20203;-66
2023/11/22 02:40:23;;;;;;;3.78;3.35;;;;;;;-1.25;100.00;102135.72;5094518;28;20561;-68
2023/11/22 02:42:56;;;;;;;2.78;2.10;;;;;;;-1.48;100.00;102138.03;5076969;28;20306;-66
2023/11/22 02:45:28;;;;;;;2.80;2.05;;;;;;;-1.60;100.00;102144.09;5080447;28;20574;-67
2023/11/22 02:47:57;;;;;;;4.32;3.97;;;;;;;-1.69;100.00;102147.28;5091833;28;20549;-67
2023/11/22 02:50:27;;;;;;;2.38;2.22;;;;;;;-1.55;100.00;102149.97;5070753;28;20624;-66
2023/11/22 02:52:56;;;;;;;4.18;3.15;;;;;;;-1.59;100.00;102148.44;5093996;28;20272;-65
2023/11/22 02:55:25;;;;;;;4.30;3.33;;;;;;;-1.47;100.00;102147.72;5094922;28;20217;-67
2023/11/22 02:57:55;;;;;;;6.60;4.30;;;;;;;-1.57;100.00;102159.84;5070391;28;20202;-68
2023/11/22 03:00:25;;;;;;;3.40;2.00;;;;;;;-1.56;100.00;102166.84;5088535;28;20206;-66
2023/11/22 03:02:55;;;;;;;3.08;2.75;;;;;;;-1.43;100.00;102186.41;5105476;28;20195;-67
2023/11/22 03:05:25;;;;;;;3.80;2.53;;;;;;;-1.47;100.00;102197.28;5093298;28;20211;-67
2023/11/22 03:07:54;;;;;;;3.53;3.13;;;;;;;-1.62;100.00;102193.75;5100003;28;20570;-67
2023/11/22 03:10:23;;;;;;;4.90;2.97;;;;;;;-1.69;100.00;102192.41;5086829;28;20198;-68
2023/11/22 03:12:52;;;;;;;3.20;2.90;;;;;;;-1.70;100.00;102206.66;5091868;28;20206;-65
2023/11/22 03:15:22;;;;;;;3.88;2.40;;;;;;;-1.73;100.00;102208.63;5095407;28;20211;-66
2023/11/22 03:17:50;;;;;;;5.50;2.63;;;;;;;-1.73;100.00;102204.16;5090179;28;20214;-68
2023/11/22 03:20:20;;;;;;;3.83;3.38;;;;;;;-1.73;100.00;102213.91;5098059;28;20202;-66
2023/11/22 03:22:50;;;;;;;5.95;2.55;;;;;;;-1.72;100.00;102208.53;5100363;28;20207;-68
2023/11/22 03:25:19;;;;;;;5.68;5.18;;;;;;;-1.79;100.00;102205.38;5074978;28;20219;-67
2023/11/22 03:27:48;;;;;;;4.40;4.00;;;;;;;-1.85;100.00;102212.88;5071362;28;20204;-67
2023/11/22 03:30:17;;;;;;;3.03;2.67;;;;;;;-1.96;100.00;102213.50;5093258;28;20563;-67
2023/11/22 03:32:49;;;;;;;6.95;3.50;;;;;;;-1.95;100.00;102219.66;5092758;28;20215;-68
2023/11/22 03:35:19;;;;;;;12.80;4.38;;;;;;;-1.88;100.00;102221.84;5092596;28;20215;-66
2023/11/22 03:37:48;;;;;;;2.85;2.17;;;;;;;-1.88;100.00;102221.84;5068884;28;20317;-65
2023/11/22 03:40:18;;;;;;;3.75;3.45;;;;;;;-1.97;100.00;102224.19;5089803;28;20581;-66
2023/11/22 03:42:47;;;;;;;9.77;5.07;;;;;;;-1.89;100.00;102214.81;5094648;28;20215;-66
2023/11/22 03:45:16;;;;;;;3.92;3.58;;;;;;;-1.95;100.00;102195.78;5096681;28;20221;-68
2023/11/22 03:47:45;;;;;;;3.50;2.60;;;;;;;-2.04;100.00;102191.00;5092523;28;20209;-65
2023/11/22 03:50:15;;;;;;;2.72;2.08;;;;;;;-1.99;100.00;102196.91;5092492;28;20203;-66
2023/11/22 03:52:44;;;;;;;3.72;2.83;;;;;;;-1.99;100.00;102197.75;5093346;28;20187;-68
2023/11/22 03:55:13;;;;;;;7.78;3.80;;;;;;;-1.94;100.00;102194.84;5100291;28;20625;-66
2023/11/22 03:57:43;;;;;;;2.10;1.92;;;;;;;-2.01;100.00;102204.94;5093627;28;20290;-66
2023/11/22 04:00:13;;;;;;;2.67;2.42;;;;;;;-1.95;100.00;102204.59;5090714;28;20246;-67
2023/11/22 04:02:43;;;;;;;3.25;2.95;;;;;;;-1.86;100.00;102213.81;5094114;28;20718;-67
2023/11/22 04:05:14;;;;;;;3.88;3.47;;;;;;;-1.97;100.00;102226.84;5091721;28;20638;-66
2023/11/22 04:07:43;;;;;;;12.82;5.70;;;;;;;-2.08;100.00;102239.88;5089346;28;20233;-68
2023/11/22 04:10:12;;;;;;;4.03;1.70;;;;;;;-2.19;100.00;102248.44;5083621;28;20233;-63
2023/11/22 04:12:41;;;;;;;3.97;3.55;;;;;;;-2.06;100.00;102249.44;5092035;28;20188;-68
2023/11/22 04:15:10;;;;;;;4.32;2.42;;;;;;;-2.04;100.00;102252.03;5073655;28;20218;-67
2023/11/22 04:17:40;;;;;;;2.60;2.20;;;;;;;-1.94;100.00;102247.91;5090073;28;20210;-66
2023/11/22 04:20:10;;;;;;;6.80;3.13;;;;;;;-2.04;100.00;102246.72;5092086;28;20206;-67
2023/11/22 04:22:41;;;;;;;4.75;3.75;;;;;;;-2.10;100.00;102241.75;5093554;28;20202;-67
2023/11/22 04:25:13;;;;;;;3.08;2.60;;;;;;;-2.15;100.00;102233.22;5073547;28;20234;-67
2023/11/22 04:27:42;;;;;;;7.40;4.25;;;;;;;-2.12;100.00;102233.88;5086205;28;20197;-66
2023/11/22 04:30:14;;;;;;;3.15;2.58;;;;;;;-2.11;100.00;102235.59;5086516;28;20195;-68
2023/11/22 04:32:44;;;;;;;12.30;5.28;;;;;;;-2.16;100.00;102242.09;5093713;28;20245;-67
2023/11/22 04:35:13;;;;;;;6.15;3.95;;;;;;;-2.15;100.00;102259.72;5097940;28;20233;-65
2023/11/22 04:37:43;;;;;;;4.97;3.30;;;;;;;-2.33;100.00;102270.44;5091943;28;20252;-66
2023/11/22 04:40:14;;;;;;;11.07;3.50;;;;;;;-2.26;100.00;102269.16;5092927;28;20198;-66
2023/11/22 04:42:43;;;;;;;5.05;3.78;;;;;;;-2.17;100.00;102261.59;5095748;28;20249;-67
2023/11/22 04:45:12;;;;;;;4.28;3.40;;;;;;;-2.04;100.00;102263.50;5094394;28;20219;-67
2023/11/22 04:47:41;;;;;;;7.88;3.92;;;;;;;-2.15;100.00;102276.50;5095684;28;20210;-65
2023/11/22 04:50:11;;;;;;;6.68;4.13;;;;;;;-2.29;100.00;102279.09;5093912;28;20268;-66
2023/11/22 04:52:42;;;;;;;7.50;3.40;;;;;;;-2.43;100.00;102279.84;5100051;28;20189;-66
2023/11/22 04:55:11;;;;;;;4.75;4.35;;;;;;;-2.41;100.00;102293.00;5096134;28;20216;-68
2023/11/22 04:57:41;;;;;;;8.88;5.43;;;;;;;-2.41;100.00;102301.81;5101190;28;20199;-68
2023/11/22 05:00:11;;;;;;;3.83;1.80;;;;;;;-2.38;100.00;102301.66;5097292;28;20209;-65
2023/11/22 05:02:40;;;;;;;5.32;4.85;;;;;;;-2.38;100.00;102312.28;5098239;28;20195;-67
2023/11/22 05:05:11;;;;;;;5.35;3.72;;;;;;;-2.32;100.00;102311.91;5095403;28;20219;-67
2023/11/22 05:07:42;;;;;;;3.97;3.30;;;;;;;-2.28;100.00;102313.47;5095711;28;20256;-67
2023/11/22 05:10:11;;;;;;;4.15;3.72;;;;;;;-2.30;100.00;102314.47;5095403;28;20206;-66
2023/11/22 05:12:40;;;;;;;5.90;4.35;;;;;;;-2.28;100.00;102313.47;5095681;28;20184;-68
2023/11/22 05:15:10;;;;;;;8.23;3.92;;;;;;;-2.28;100.00;102324.09;5092232;28;20329;-65
2023/11/22 05:17:39;;;;;;;3.60;2.38;;;;;;;-2.30;100.00;102327.75;5096146;28;20291;-66
2023/11/22 05:20:10;;;;;;;4.07;3.67;;;;;;;-2.27;100.00;102331.06;5095556;28;20187;-66
2023/11/22 05:22:39;;;;;;;3.88;3.55;;;;;;;-2.50;100.00;102322.69;5095801;28;20196;-67
2023/11/22 05:25:10;;;;;;;8.38;4.35;;;;;;;-2.42;100.00;102326.63;5075220;28;20208;-68
2023/11/22 05:27:39;;;;;;;5.60;3.20;;;;;;;-2.36;100.00;102331.59;5096251;28;20187;-68
2023/11/22 05:30:10;;;;;;;3.75;3.45;;;;;;;-2.29;100.00;102325.03;5090849;28;20192;-67
2023/11/22 05:32:40;;;;;;;7.90;3.88;;;;;;;-2.33;100.00;102336.75;5089563;28;20333;-67
2023/11/22 05:35:09;;;;;;;7.57;3.80;;;;;;;-2.42;100.00;102339.88;5099892;28;20762;-68
2023/11/22 05:37:39;;;;;;;6.97;4.68;;;;;;;-2.42;100.00;102358.44;5097455;28;20202;-68
2023/11/22 05:40:11;;;;;;;11.02;6.28;;;;;;;-2.56;100.00;102371.56;5096154;28;20653;-68
2023/11/22 05:42:40;;;;;;;7.40;3.60;;;;;;;-2.43;100.00;102371.78;5096295;28;20183;-68
2023/11/22 05:45:10;;;;;;;7.25;4.20;;;;;;;-2.53;100.00;102368.78;5096230;28;20724;-67
2023/11/22 05:47:40;;;;;;;4.60;3.00;;;;;;;-2.60;100.00;102370.03;5092623;28;20595;-68
2023/11/22 05:50:10;;;;;;;3.15;2.38;;;;;;;-2.54;100.00;102359.09;5093378;28;20781;-67
2023/11/22 05:52:40;;;;;;;4.60;3.03;;;;;;;-2.63;100.00;102363.09;5094466;28;20310;-68
2023/11/22 05:55:13;;;;;;;4.07;3.78;;;;;;;-2.61;100.00;102360.34;5092399;28;20242;-67
2023/11/22 05:57:43;;;;;;;9.00;2.75;;;;;;;-2.58;100.00;102354.91;5086634;28;20202;-66
2023/11/22 06:00:14;;;;;;;8.80;6.13;;;;;;;-2.53;100.00;102352.00;5095039;28;20195;-66
2023/11/22 06:02:42;;;;;;;6.82;4.90;;;;;;;-2.59;100.00;102352.34;5089163;28;20187;-69
2023/11/22 06:05:11;;;;;;;3.50;3.10;;;;;;;-2.64;100.00;102347.28;5096297;28;20222;-67
2023/11/22 06:07:40;;;;;;;8.90;4.55;;;;;;;-2.64;100.00;102352.59;5094436;28;20237;-67
2023/11/22 06:10:13;;;;;;;6.38;4.50;;;;;;;-2.68;100.00;102361.63;5100981;28;20198;-67
2023/11/22 06:12:42;;;;;;;6.18;3.78;;;;;;;-2.64;100.00;102357.88;5094241;28;20199;-66
2023/11/22 06:15:13;;;;;;;4.97;4.00;;;;;;;-2.74;100.00;102362.81;5109468;28;20211;-67
2023/11/22 06:17:42;;;;;;;3.83;3.53;;;;;;;-2.60;100.00;102359.44;5089384;28;20203;-66
2023/11/22 06:20:11;;;;;;;2.83;2.55;;;;;;;-2.72;100.00;102358.31;5094252;28;20679;-67
2023/11/22 06:22:42;;;;;;;5.40;3.72;;;;;;;-2.70;100.00;102358.19;5094066;28;20187;-67
2023/11/22 06:25:12;;;;;;;5.18;4.68;;;;;;;-2.74;100.00;102368.13;5095132;28;20215;-67
2023/11/22 06:27:42;;;;;;;11.93;5.18;;;;;;;-2.89;100.00;102376.88;5089663;28;20176;-67
2023/11/22 06:30:11;;;;;;;6.68;5.78;;;;;;;-2.84;100.00;102377.47;5088424;28;20226;-68
2023/11/22 06:32:42;;;;;;;5.90;3.08;;;;;;;-2.86;100.00;102383.81;5095345;28;20188;-67
2023/11/22 06:35:14;;;;;;;4.43;4.03;;;;;;;-2.69;100.00;102378.47;5093738;28;20211;-67
2023/11/22 06:37:43;;;;;;;5.10;4.65;;;;;;;-2.82;100.00;102395.97;5088453;28;20206;-67
2023/11/22 06:40:14;;;;;;;5.38;4.88;;;;;;;-2.78;100.00;102402.81;5094573;28;20197;-67
2023/11/22 06:42:43;;;;;;;5.78;3.83;;;;;;;-2.70;100.00;102411.19;5097849;28;20210;-68
2023/11/22 06:45:12;;;;;;;7.22;4.03;;;;;;;-2.78;100.00;102405.44;5093663;28;20212;-66
2023/11/22 06:47:42;;;;;;;6.88;4.47;;;;;;;-2.73;100.00;102416.66;5096166;28;20211;-67
2023/11/22 06:50:12;;;;;;;9.43;4.28;;;;;;;-2.58;100.00;102431.78;5091336;28;20195;-66
2023/11/22 06:52:41;;;;;;;7.43;4.30;;;;;;;-2.75;100.00;102442.38;5095934;28;20249;-68
2023/11/22 06:55:11;;;;;;;9.60;5.40;;;;;;;-2.67;100.00;102454.31;5092069;28;20215;-67
2023/11/22 06:57:41;;;;;;;7.10;4.38;;;;;;;-2.57;100.00;102454.69;5092065;28;20231;-67
2023/11/22 07:00:14;;;;;;;6.22;2.65;;;;;;;-2.57;100.00;102454.69;5093612;28;20195;-68
2023/11/22 07:02:43;;;;;;;6.82;5.65;;;;;;;-2.54;100.00;102457.19;5089924;28;20188;-67
2023/11/22 07:05:12;;;;;;;3.92;3.42;;;;;;;-2.58;100.00;102460.94;5093553;28;20203;-67
2023/11/22 07:07:42;;;;;;;3.90;3.40;;;;;;;-2.52;100.00;102473.00;5092931;28;20278;-67
2023/11/22 07:10:13;;;;;;;8.27;6.40;;;;;;;-2.59;100.00;102472.47;5089129;28;20242;-66
2023/11/22 07:12:44;;;;;;;9.90;7.30;;;;;;;-2.63;100.00;102457.66;5091005;28;20270;-67
2023/11/22 07:15:13;;;;;;;9.38;6.60;;;;;;;-2.54;100.00;102467.78;5089083;28;20249;-66
2023/11/22 07:17:42;;;;;;;16.48;13.25;;;;;;;-2.58;100.00;102468.03;5093420;28;20196;-66
2023/11/22 07:20:16;;;;;;;5.93;5.30;;;;;;;-2.40;100.00;102467.06;5092958;28;20198;-67
2023/11/22 07:22:45;;;;;;;5.57;4.97;;;;;;;-2.25;100.00;102482.16;5093066;28;20195;-66
2023/11/22 07:25:18;;;;;;;9.27;7.78;;;;;;;-2.24;100.00;102479.44;5098533;28;20218;-66
2023/11/22 07:27:49;;;;;;;11.45;8.43;;;;;;;-2.11;100.00;102469.00;5096421;28;20270;-67
2023/11/22 07:30:19;;;;;;;6.82;5.80;;;;;;;-2.12;100.00;102466.44;5093097;28;20195;-67
2023/11/22 07:32:53;;;;;;;8.35;4.70;;;;;;;-2.10;100.00;102470.75;5092119;28;20261;-67
2023/11/22 07:35:22;;;;;;;14.15;6.15;;;;;;;-2.12;100.00;102477.03;5088821;28;20219;-67
2023/11/22 07:37:51;;;;;;;8.00;6.93;;;;;;;-2.01;100.00;102486.16;5087494;28;20233;-66
2023/11/22 07:40:22;;;;;;;7.30;5.90;;;;;;;-1.88;100.00;102491.63;5077550;28;20253;-67
2023/11/22 07:42:52;;;;;;;6.38;4.43;;;;;;;-1.80;100.00;102486.78;5088820;28;20184;-66
2023/11/22 07:45:22;;;;;;;11.95;6.78;;;;;;;-1.78;100.00;102482.25;5070984;28;20219;-66
2023/11/22 07:47:52;;;;;;;5.07;3.05;;;;;;;-1.69;100.00;102479.06;5069873;28;20210;-67
2023/11/22 07:50:24;;;;;;;7.85;6.30;;;;;;;-1.68;100.00;102474.63;5093678;28;20195;-69
2023/11/22 07:52:54;;;;;;;3.88;2.97;;;;;;;-1.59;100.00;102467.00;5093980;28;20195;-67
2023/11/22 07:55:23;;;;;;;13.18;4.97;;;;;;;-1.57;100.00;102461.63;5094453;28;20213;-67
2023/11/22 07:57:55;;;;;;;3.70;3.42;;;;;;;-1.53;100.00;102465.81;5094787;28;20215;-67
2023/11/22 08:00:24;;;;;;;8.23;4.88;;;;;;;-1.51;100.00;102442.69;5091027;28;20248;-66
2023/11/22 08:02:54;;;;;;;6.18;4.18;;;;;;;-1.33;100.00;102437.19;5096627;28;20194;-68
2023/11/22 08:05:23;;;;;;;4.45;3.17;;;;;;;-1.40;100.00;102438.47;5092961;28;20211;-68
2023/11/22 08:07:52;;;;;;;5.13;3.28;;;;;;;-1.39;100.00;102437.53;5087925;28;20679;-67
2023/11/22 08:10:22;;;;;;;10.75;4.10;;;;;;;-1.29;100.00;102432.53;5094177;28;20183;-68
2023/11/22 08:12:53;;;;;;;6.13;3.88;;;;;;;-1.25;100.00;102434.06;5092852;28;20191;-67
2023/11/22 08:15:21;;;;;;;9.02;5.40;;;;;;;-1.15;100.00;102437.06;5089664;28;20218;-67
2023/11/22 08:17:50;;;;;;;9.23;4.60;;;;;;;-1.10;100.00;102445.63;5087353;28;20191;-67
2023/11/22 08:20:19;;;;;;;7.63;3.97;;;;;;;-0.90;100.00;102456.78;5093229;28;20253;-66
2023/11/22 08:22:50;;;;;;;5.20;3.72;;;;;;;-0.89;100.00;102457.66;5094317;28;20684;-67
2023/11/22 08:25:20;;;;;;;6.05;4.35;;;;;;;-0.89;100.00;102452.34;5092910;28;20215;-68
2023/11/22 08:27:49;;;;;;;14.20;6.03;;;;;;;-0.86;100.00;102457.47;5086266;28;20183;-67
2023/11/22 08:30:19;;;;;;;8.27;3.53;;;;;;;-0.78;100.00;102457.03;5085118;28;20226;-67
2023/11/22 08:32:53;;;;;;;8.07;6.57;;;;;;;-0.74;100.00;102455.91;5090886;28;20195;-67
2023/11/22 08:35:24;;;;;;;8.95;4.30;;;;;;;-0.65;100.00;102479.28;5095988;28;20257;-67
2023/11/22 08:37:53;;;;;;;6.72;3.95;;;;;;;-0.62;100.00;102468.44;5088510;28;20191;-67
2023/11/22 08:40:22;;;;;;;5.78;4.03;;;;;;;-0.56;100.00;102465.41;5095773;28;20207;-66
2023/11/22 08:42:51;;;;;;;7.10;3.65;;;;;;;-0.55;100.00;102464.47;5091853;28;20540;-67
2023/11/22 08:45:22;;;;;;;7.70;4.65;;;;;;;-0.41;100.00;102458.31;5088896;28;20211;-68
2023/11/22 08:47:51;;;;;;;7.82;4.78;;;;;;;-0.29;99.77;102465.56;5093954;28;20191;-69
2023/11/22 08:50:21;;;;;;;5.13;2.50;;;;;;;-0.35;95.59;102473.91;5090926;28;20985;-67
2023/11/22 08:52:52;;;;;;;5.90;4.60;;;;;;;-0.44;94.28;102481.47;5091571;28;20187;-66
2023/11/22 08:55:22;;;;;;;8.57;4.32;;;;;;;-0.33;95.22;102482.63;5092128;28;20210;-68
2023/11/22 08:57:52;;;;;;;6.70;3.88;;;;;;;-0.20;92.99;102487.13;5090681;28;20198;-69
2023/11/22 09:00:23;;;;;;;4.60;3.83;;;;;;;-0.19;90.58;102479.97;5073812;28;20215;-69
2023/11/22 09:02:52;;;;;;;11.20;4.47;;;;;;;-0.18;90.54;102489.69;5092083;28;20203;-69
2023/11/22 09:05:21;;;;;;;6.50;3.65;;;;;;;0.06;88.79;102497.94;5092497;28;20246;-70
2023/11/22 09:07:51;;;;;;;16.98;3.35;;;;;;;-0.02;85.84;102509.09;5092923;28;20223;-69
2023/11/22 09:10:21;;;;;;;6.68;5.18;;;;;;;0.02;85.70;102499.97;5073286;28;20188;-69
2023/11/22 09:12:51;;;;;;;5.30;4.90;;;;;;;0.23;83.69;102493.31;5091421;28;20198;-68
2023/11/22 09:15:26;;;;;;;6.78;4.82;;;;;;;0.17;81.88;102483.03;5095191;28;20553;-69
2023/11/22 09:17:56;;;;;;;5.40;3.28;;;;;;;0.23;81.09;102481.78;5090661;28;20657;-69
2023/11/22 09:20:25;;;;;;;4.63;4.05;;;;;;;0.13;78.14;102476.19;5091800;28;20764;-69
2023/11/22 09:22:55;;;;;;;3.50;3.22;;;;;;;0.18;77.45;102482.09;5097096;28;20198;-69
2023/11/22 09:25:25;;;;;;;4.63;3.90;;;;;;;0.16;77.20;102478.66;5095133;28;20218;-70
2023/11/22 09:27:58;;;;;;;6.40;3.15;;;;;;;0.25;79.36;102469.22;5079451;28;20609;-70
2023/11/22 09:30:35;;;;;;;4.88;3.22;;;;;;;0.46;79.58;102461.69;5091698;28;20191;-69
2023/11/22 09:33:05;;;;;;;7.45;4.43;;;;;;;0.55;80.30;102453.09;5100514;28;20527;-69
2023/11/22 09:35:35;;;;;;;6.85;3.85;;;;;;;0.57;80.03;102459.19;5099918;28;20278;-69
2023/11/22 09:38:06;;;;;;;7.63;4.05;;;;;;;0.66;79.88;102469.25;5077474;28;20188;-70
2023/11/22 09:40:36;;;;;;;7.75;4.60;;;;;;;0.50;81.25;102453.38;5090978;28;20217;-68
2023/11/22 09:43:05;;;;;;;5.03;2.60;;;;;;;0.62;81.35;102451.75;5096175;28;20222;-68
2023/11/22 09:45:37;;;;;;;4.30;3.35;;;;;;;0.72;81.53;102436.88;5097488;28;20526;-68
2023/11/22 09:48:14;;;;;;;6.82;4.45;;;;;;;0.85;81.43;102438.63;5094584;28;20602;-68
2023/11/22 09:50:51;;;;;;;5.55;3.00;;;;;;;1.09;79.97;102441.44;5097237;28;20178;-69
2023/11/22 09:53:27;;;;;;;4.22;3.65;;;;;;;1.33;76.14;102443.41;5096444;28;20199;-68
2023/11/22 09:55:57;;;;;;;4.05;3.67;;;;;;;1.39;77.05;102440.31;5095069;28;20187;-68
2023/11/22 09:58:27;;;;;;;13.45;4.20;;;;;;;1.53;76.51;102456.22;5096056;28;20558;-69
2023/11/22 10:00:58;;;;;;;6.82;3.38;;;;;;;1.35;76.72;102462.84;5092160;28;20199;-69
2023/11/22 10:03:29;;;;;;;5.00;4.70;;;;;;;1.21;75.87;102474.44;5087407;28;20701;-69
2023/11/22 10:05:59;;;;;;;9.30;3.67;;;;;;;1.45;75.98;102479.94;5094046;28;20638;-69
2023/11/22 10:08:29;;;;;;;3.47;2.05;;;;;;;1.51;74.94;102485.69;5092017;28;20206;-67
2023/11/22 10:10:59;;;;;;;3.72;2.75;;;;;;;1.77;72.33;102486.56;5095113;28;20205;-69
2023/11/22 10:13:28;;;;;;;4.45;3.28;;;;;;;1.66;70.28;102478.44;5091382;28;20219;-69
2023/11/22 10:16:10;;;;;;;8.65;2.33;;;;;;;2.03;69.60;102477.56;5087391;28;20191;-69
2023/11/22 10:18:44;;;;;;;4.13;3.28;;;;;;;1.78;68.26;102472.25;5095993;28;20218;-67
2023/11/22 10:21:25;;;;;;;2.38;2.17;;;;;;;1.81;68.56;102479.19;5093169;28;20194;-70
2023/11/22 10:23:56;;;;;;;5.60;2.80;;;;;;;2.08;67.23;102471.91;5094736;28;20302;-68
2023/11/22 10:26:28;;;;;;;4.53;2.65;;;;;;;1.98;66.71;102478.88;5102235;28;20183;-68
2023/11/22 10:28:58;;;;;;;5.28;3.45;;;;;;;2.21;66.65;102490.59;5094963;28;20244;-69
2023/11/22 10:31:29;;;;;;;4.65;2.53;;;;;;;2.32;65.63;102496.03;5085104;28;20251;-68
2023/11/22 10:33:58;;;;;;;4.53;2.30;;;;;;;2.24;65.09;102495.69;5078498;28;20262;-69
2023/11/22 10:36:27;;;;;;;4.20;3.80;;;;;;;2.22;65.58;102487.81;5097004;28;20191;-68
2023/11/22 10:38:58;;;;;;;11.95;3.10;;;;;;;2.13;65.11;102489.28;5094666;28;20195;-69
2023/11/22 10:41:27;;;;;;;3.60;2.90;;;;;;;2.32;64.42;102475.50;5095301;28;20215;-69
2023/11/22 10:43:58;;;;;;;4.45;3.05;;;;;;;2.42;64.11;102478.38;5095092;28;20223;-69
2023/11/22 10:46:30;;;;;;;5.40;3.00;;;;;;;2.34;64.95;102478.03;5089818;28;20223;-69
2023/11/22 10:49:00;;;;;;;8.13;5.75;;;;;;;2.31;64.69;102480.94;5097045;28;20202;-69
2023/11/22 10:51:33;;;;;;;3.88;2.67;;;;;;;2.41;64.52;102490.88;5099825;28;20213;-67
2023/11/22 10:54:03;;;;;;;4.38;2.85;;;;;;;2.43;64.43;102496.06;5096327;28;20588;-68
2023/11/22 10:56:38;;;;;;;6.78;4.68;;;;;;;2.53;64.84;102500.66;5089021;28;20187;-68
2023/11/22 10:59:13;;;;;;;5.82;4.47;;;;;;;2.27;63.59;102495.50;5098177;28;20550;-69
2023/11/22 11:01:48;;;;;;;4.57;3.05;;;;;;;2.29;63.70;102490.88;5097400;28;20677;-68
2023/11/22 11:04:24;;;;;;;4.82;4.05;;;;;;;2.35;63.53;102487.78;5093668;28;20245;-66
2023/11/22 11:06:56;;;;;;;3.33;2.88;;;;;;;2.54;63.26;102488.16;5092891;28;20194;-68
2023/11/22 11:09:31;;;;;;;4.35;2.38;;;;;;;2.78;63.22;102485.50;5093643;28;20566;-67
2023/11/22 11:12:03;;;;;;;5.05;3.42;;;;;;;2.87;62.15;102484.81;5091717;28;20283;-68
2023/11/22 11:14:38;;;;;;;6.38;3.35;;;;;;;2.91;61.66;102478.25;5071535;28;20598;-69
2023/11/22 11:17:10;;;;;;;5.88;3.50;;;;;;;3.10;60.58;102461.72;5095564;28;20191;-69
2023/11/22 11:19:39;;;;;;;3.67;3.38;;;;;;;3.10;60.38;102467.88;5091983;28;20198;-69
2023/11/22 11:22:10;;;;;;;4.85;2.90;;;;;;;3.06;59.45;102464.59;5085939;28;20704;-69
2023/11/22 11:24:44;;;;;;;5.10;4.03;;;;;;;2.90;60.92;102458.72;5090293;28;20218;-69
2023/11/22 11:27:13;;;;;;;6.47;3.42;;;;;;;3.12;60.13;102457.09;5091560;28;20716;-68
2023/11/22 11:29:43;;;;;;;3.00;2.35;;;;;;;2.99;60.00;102449.16;5099432;28;20190;-67
2023/11/22 11:32:31;;;;;;;6.55;4.53;;;;;;;3.03;60.33;102453.28;5090685;28;20193;-69
2023/11/22 11:35:06;;;;;;;4.28;2.53;;;;;;;3.04;60.26;102438.97;5096665;28;20229;-70